createdAt,value
2022-09-06T00:01:28.629Z,2.50
2022-09-06T00:03:55.660Z,2.60
2022-09-06T00:06:26.678Z,2.22
2022-09-06T00:09:10.258Z,2.63
2022-09-06T00:16:48.457Z,2.70
2022-09-06T00:19:15.522Z,2.30
2022-09-06T00:21:43.624Z,2.47
2022-09-06T00:24:10.787Z,3.00
2022-09-06T00:26:37.831Z,2.63
2022-09-06T00:29:44.206Z,2.33
2022-09-06T00:32:11.185Z,2.70
2022-09-06T00:37:56.535Z,2.80
2022-09-06T00:40:23.962Z,2.60
2022-09-06T00:43:04.040Z,2.67
2022-09-06T00:45:53.031Z,2.58
2022-09-06T00:48:20.535Z,2.88
2022-09-06T00:50:55.318Z,2.90
2022-09-06T00:53:43.919Z,2.70
2022-09-06T00:56:11.518Z,3.30
2022-09-06T00:59:12.555Z,3.28
2022-09-06T01:01:45.051Z,3.15
2022-09-06T01:07:42.518Z,2.67
2022-09-06T01:10:26.320Z,3.00
2022-09-06T01:13:02.053Z,3.05
2022-09-06T01:15:32.066Z,2.90
2022-09-06T01:18:09.230Z,2.92
2022-09-06T01:20:41.483Z,2.95
2022-09-06T01:23:41.088Z,3.22
2022-09-06T01:26:27.571Z,3.42
2022-09-06T01:28:55.412Z,3.70
2022-09-06T01:32:04.361Z,3.65
2022-09-06T01:34:42.852Z,3.88
2022-09-06T01:37:12.502Z,3.42
2022-09-06T01:39:42.460Z,3.30
2022-09-06T01:42:12.598Z,4.15
2022-09-06T01:44:53.154Z,3.88
2022-09-06T01:50:14.336Z,3.70
2022-09-06T01:53:43.583Z,4.28
2022-09-06T01:56:31.896Z,4.30
2022-09-06T01:59:30.650Z,4.55
2022-09-06T02:02:00.406Z,4.18
2022-09-06T02:04:30.345Z,4.15
2022-09-06T02:07:20.291Z,4.20
2022-09-06T02:09:49.842Z,4.13
2022-09-06T02:12:18.731Z,4.80
2022-09-06T02:15:11.928Z,3.85
2022-09-06T02:17:52.730Z,4.47
2022-09-06T02:20:22.384Z,3.65
2022-09-06T02:22:49.745Z,4.15
2022-09-06T02:25:48.735Z,3.83
2022-09-06T02:29:09.570Z,3.47
2022-09-06T02:32:33.519Z,3.80
2022-09-06T02:38:07.884Z,3.70
2022-09-06T02:40:35.421Z,3.65
2022-09-06T02:46:24.058Z,3.97
2022-09-06T02:49:57.055Z,4.00
2022-09-06T02:52:24.114Z,3.55
2022-09-06T02:58:11.943Z,3.70
2022-09-06T03:00:39.593Z,4.03
2022-09-06T03:03:27.666Z,4.40
2022-09-06T03:05:55.797Z,3.95
2022-09-06T03:08:35.479Z,4.65
2022-09-06T03:11:03.113Z,4.78
2022-09-06T03:13:30.255Z,5.10
2022-09-06T03:15:58.861Z,4.63
2022-09-06T03:21:47.249Z,5.10
2022-09-06T03:27:41.743Z,4.07
2022-09-06T03:30:11.623Z,4.65
2022-09-06T03:33:02.920Z,4.97
2022-09-06T03:35:50.471Z,5.10
2022-09-06T03:38:20.153Z,4.55
2022-09-06T03:41:13.799Z,4.55
2022-09-06T03:43:41.898Z,5.00
2022-09-06T03:46:14.587Z,5.25
2022-09-06T03:48:42.248Z,4.95
2022-09-06T03:51:09.338Z,5.05
2022-09-06T03:53:45.727Z,4.90
2022-09-06T03:56:32.284Z,4.85
2022-09-06T03:58:59.509Z,5.00
2022-09-06T04:01:26.489Z,4.78
2022-09-06T04:03:53.538Z,4.97
2022-09-06T04:06:20.503Z,4.65
2022-09-06T04:08:47.530Z,4.70
2022-09-06T04:11:14.628Z,5.00
2022-09-06T04:13:44.219Z,4.57
2022-09-06T04:16:19.858Z,4.85
2022-09-06T04:19:05.330Z,5.20
2022-09-06T04:21:45.612Z,5.20
2022-09-06T04:28:08.367Z,5.70
2022-09-06T04:31:22.387Z,5.25
2022-09-06T04:34:11.686Z,4.95
2022-09-06T04:36:48.080Z,5.03
2022-09-06T04:39:15.824Z,4.50
2022-09-06T04:41:50.170Z,5.00
2022-09-06T04:44:17.263Z,4.90
2022-09-06T04:47:16.284Z,4.68
2022-09-06T04:49:46.930Z,4.47
2022-09-06T04:52:14.455Z,4.47
2022-09-06T04:54:46.130Z,4.35
2022-09-06T04:57:12.980Z,3.97
2022-09-06T04:59:43.992Z,4.18
2022-09-06T05:02:11.079Z,4.50
2022-09-06T05:04:38.437Z,4.18
2022-09-06T05:07:07.371Z,4.05
2022-09-06T05:09:38.333Z,4.18
2022-09-06T05:12:05.455Z,4.20
2022-09-06T05:14:32.843Z,5.50
2022-09-06T05:17:03.014Z,4.28
2022-09-06T05:19:30.084Z,4.50
2022-09-06T05:21:56.978Z,4.13
2022-09-06T05:24:27.870Z,4.00
2022-09-06T05:26:54.891Z,4.03
2022-09-06T05:29:22.370Z,5.15
2022-09-06T05:31:49.380Z,5.45
2022-09-06T05:34:19.999Z,5.05
2022-09-06T05:36:47.509Z,5.50
2022-09-06T05:39:14.639Z,6.75
2022-09-06T05:41:42.091Z,6.00
2022-09-06T05:44:09.201Z,6.65
2022-09-06T05:46:42.024Z,6.72
2022-09-06T05:49:10.680Z,7.20
2022-09-06T05:51:41.277Z,7.60
2022-09-06T05:54:10.591Z,7.25
2022-09-06T05:56:37.538Z,7.60
2022-09-06T05:59:04.756Z,8.98
2022-09-06T06:01:31.860Z,8.50
2022-09-06T06:04:07.104Z,8.73
2022-09-06T06:06:34.772Z,9.55
2022-09-06T06:09:16.830Z,9.50
2022-09-06T06:11:49.977Z,9.65
2022-09-06T06:14:16.927Z,8.93
2022-09-06T06:16:43.961Z,9.38
2022-09-06T06:22:31.709Z,8.27
2022-09-06T06:25:01.592Z,7.70
2022-09-06T06:27:47.100Z,7.70
2022-09-06T06:30:18.478Z,7.63
2022-09-06T06:32:45.522Z,7.18
2022-09-06T06:37:48.217Z,7.75
2022-09-06T06:40:15.293Z,8.07
2022-09-06T06:42:42.421Z,7.35
2022-09-06T06:45:09.722Z,8.07
2022-09-06T06:47:37.193Z,8.30
2022-09-06T06:50:04.183Z,7.78
2022-09-06T06:52:31.303Z,8.32
2022-09-06T06:54:58.148Z,8.40
2022-09-06T06:57:25.025Z,8.65
2022-09-06T06:59:52.422Z,7.25
2022-09-06T07:02:25.017Z,8.40
2022-09-06T07:04:52.300Z,6.95
2022-09-06T07:07:36.716Z,6.97
2022-09-06T07:12:53.882Z,7.72
2022-09-06T07:15:20.763Z,7.35
2022-09-06T07:17:48.178Z,7.80
2022-09-06T07:20:15.941Z,7.95
2022-09-06T07:22:43.783Z,7.68
2022-09-06T07:25:15.322Z,8.05
2022-09-06T07:30:14.427Z,6.65
2022-09-06T07:32:41.658Z,6.97
2022-09-06T07:35:08.866Z,6.63
2022-09-06T07:37:36.736Z,6.55
2022-09-06T07:40:04.215Z,6.32
2022-09-06T07:42:36.476Z,5.90
2022-09-06T07:45:04.808Z,5.65
2022-09-06T07:55:38.762Z,4.43
2022-09-06T07:58:05.978Z,3.60
2022-09-06T08:00:33.046Z,4.10
2022-09-06T08:02:59.929Z,5.13
2022-09-06T08:11:01.321Z,3.83
2022-09-06T08:13:28.389Z,3.40
2022-09-06T08:15:59.422Z,3.45
2022-09-06T08:18:26.375Z,3.80
2022-09-06T08:20:56.287Z,3.20
2022-09-06T08:23:24.534Z,3.38
2022-09-06T08:26:00.068Z,3.38
2022-09-06T08:28:28.895Z,4.40
2022-09-06T08:30:56.045Z,4.00
2022-09-06T08:33:25.921Z,4.20
2022-09-06T08:35:57.069Z,4.40
2022-09-06T08:38:25.375Z,3.95
2022-09-06T08:40:54.333Z,3.97
2022-09-06T08:43:23.333Z,3.92
2022-09-06T08:45:56.486Z,4.60
2022-09-06T08:48:26.028Z,4.57
2022-09-06T08:51:20.529Z,3.67
2022-09-06T08:53:50.855Z,3.30
2022-09-06T08:56:23.407Z,3.30
2022-09-06T08:58:53.046Z,3.60
2022-09-06T09:01:25.393Z,3.42
2022-09-06T09:03:53.221Z,3.53
2022-09-06T09:06:20.113Z,3.30
2022-09-06T09:08:49.969Z,3.78
2022-09-06T09:11:18.627Z,3.03
2022-09-06T09:13:48.981Z,3.13
2022-09-06T09:16:16.143Z,3.08
2022-09-06T09:18:45.022Z,2.80
2022-09-06T09:21:12.085Z,3.10
2022-09-06T09:23:39.092Z,3.58
2022-09-06T09:26:09.607Z,3.20
2022-09-06T09:28:36.558Z,3.10
2022-09-06T09:31:04.242Z,3.50
2022-09-06T09:33:41.346Z,2.78
2022-09-06T09:36:11.688Z,2.30
2022-09-06T09:38:44.038Z,2.72
2022-09-06T09:41:23.947Z,1.95
2022-09-06T09:44:02.280Z,2.35
2022-09-06T09:46:35.378Z,2.22
2022-09-06T09:49:22.521Z,2.50
2022-09-06T09:52:06.830Z,2.33
2022-09-06T09:54:36.393Z,2.25
2022-09-06T09:57:11.543Z,1.90
2022-09-06T09:59:50.489Z,1.80
2022-09-06T10:02:36.481Z,2.00
2022-09-06T10:05:09.850Z,2.10
2022-09-06T10:07:42.775Z,2.03
2022-09-06T10:10:14.647Z,2.15
2022-09-06T10:12:42.595Z,1.60
2022-09-06T10:15:12.069Z,2.47
2022-09-06T10:17:48.576Z,1.88
2022-09-06T10:20:16.573Z,2.20
2022-09-06T10:22:46.383Z,1.90
2022-09-06T10:25:28.402Z,2.17
2022-09-06T10:28:13.135Z,1.75
2022-09-06T10:30:54.089Z,1.60
2022-09-06T10:33:44.158Z,1.60
2022-09-06T10:36:11.102Z,1.80
2022-09-06T10:38:43.484Z,2.05
2022-09-06T10:41:29.744Z,1.40
2022-09-06T10:44:09.302Z,1.80
2022-09-06T10:46:37.135Z,1.60
2022-09-06T10:49:04.027Z,1.60
2022-09-06T10:51:33.863Z,1.75
2022-09-06T10:54:00.705Z,1.48
2022-09-06T10:56:48.779Z,1.52
2022-09-06T11:02:01.003Z,1.55
2022-09-06T11:07:28.843Z,1.58
2022-09-06T11:09:58.079Z,1.20
2022-09-06T11:12:42.773Z,1.48
2022-09-06T11:15:12.471Z,1.25
2022-09-06T11:17:48.318Z,1.27
2022-09-06T11:20:19.409Z,1.35
2022-09-06T11:23:04.842Z,1.30
2022-09-06T11:25:50.406Z,1.98
2022-09-06T11:28:19.619Z,1.60
2022-09-06T11:30:48.381Z,1.65
2022-09-06T11:33:18.249Z,1.70
2022-09-06T11:35:45.412Z,1.65
2022-09-06T11:38:12.345Z,1.92
2022-09-06T11:40:41.780Z,1.45
2022-09-06T11:43:09.964Z,1.35
2022-09-06T11:45:47.759Z,1.13
2022-09-06T11:48:23.746Z,1.23
2022-09-06T11:50:53.642Z,1.33
2022-09-06T11:53:21.397Z,1.77
2022-09-06T11:55:52.470Z,1.17
2022-09-06T12:00:46.891Z,1.30
2022-09-06T12:06:28.779Z,1.80
2022-09-06T12:08:56.045Z,1.85
2022-09-06T12:11:33.429Z,2.20
2022-09-06T12:16:46.539Z,2.00
2022-09-06T12:19:33.338Z,1.95
2022-09-06T12:22:00.286Z,1.77
2022-09-06T12:24:36.111Z,2.47
2022-09-06T12:27:16.425Z,2.00
2022-09-06T12:29:56.417Z,1.67
2022-09-06T12:32:26.535Z,2.00
2022-09-06T12:37:57.492Z,1.95
2022-09-06T12:40:26.137Z,2.20
2022-09-06T12:42:53.995Z,2.00
2022-09-06T12:45:27.062Z,2.20
2022-09-06T12:48:24.097Z,2.25
2022-09-06T12:51:01.731Z,2.20
2022-09-06T12:53:31.720Z,2.20
2022-09-06T12:56:04.746Z,2.70
2022-09-06T12:58:31.847Z,2.35
2022-09-06T13:01:03.772Z,2.30
2022-09-06T13:03:39.660Z,2.30
2022-09-06T13:06:07.347Z,2.60
2022-09-06T13:08:37.449Z,2.20
2022-09-06T13:11:08.601Z,2.88
2022-09-06T13:16:02.743Z,2.75
2022-09-06T13:18:39.830Z,3.00
2022-09-06T13:21:08.545Z,3.25
2022-09-06T13:23:59.122Z,2.58
2022-09-06T13:26:33.615Z,2.80
2022-09-06T13:29:29.552Z,2.10
2022-09-06T13:31:57.376Z,1.63
2022-09-06T13:34:26.108Z,1.95
2022-09-06T13:36:54.403Z,1.73
2022-09-06T13:39:31.656Z,1.85
2022-09-06T13:42:03.275Z,1.60
2022-09-06T13:44:31.310Z,1.55
2022-09-06T13:46:58.388Z,2.00
2022-09-06T13:49:25.788Z,2.28
2022-09-06T13:51:53.510Z,2.58
2022-09-06T13:54:20.425Z,2.40
2022-09-06T13:56:48.600Z,2.28
2022-09-06T13:59:15.869Z,2.15
2022-09-06T14:01:44.903Z,2.00
2022-09-06T14:04:14.828Z,2.20
2022-09-06T14:06:41.984Z,1.90
2022-09-06T14:09:09.497Z,2.30
2022-09-06T14:11:37.478Z,3.05
2022-09-06T14:14:04.739Z,1.70
2022-09-06T14:16:32.193Z,1.98
2022-09-06T14:18:59.211Z,2.67
2022-09-06T14:21:26.305Z,2.55
2022-09-06T14:23:54.108Z,2.17
2022-09-06T14:26:22.231Z,2.67
2022-09-06T14:28:50.104Z,2.20
2022-09-06T14:31:18.853Z,2.20
2022-09-06T14:33:45.960Z,2.75
2022-09-06T14:36:14.152Z,2.67
2022-09-06T14:38:42.413Z,2.47
2022-09-06T14:41:10.065Z,2.65
2022-09-06T14:43:37.282Z,2.42
2022-09-06T14:46:08.424Z,2.53
2022-09-06T14:51:13.384Z,2.50
2022-09-06T14:53:43.857Z,2.35
2022-09-06T14:56:12.036Z,2.10
2022-09-06T14:58:39.683Z,2.92
2022-09-06T15:01:14.672Z,2.63
2022-09-06T15:03:43.322Z,2.20
2022-09-06T15:06:10.596Z,2.40
2022-09-06T15:08:38.546Z,2.42
2022-09-06T15:11:16.218Z,2.17
2022-09-06T15:13:43.390Z,1.95
2022-09-06T15:16:11.308Z,2.13
2022-09-06T15:18:40.169Z,2.22
2022-09-06T15:21:48.620Z,2.30
2022-09-06T15:27:45.511Z,2.40
2022-09-06T15:30:37.199Z,2.50
2022-09-06T15:33:09.785Z,2.15
2022-09-06T15:35:38.737Z,2.17
2022-09-06T15:38:05.608Z,2.40
2022-09-06T15:40:32.552Z,2.13
2022-09-06T15:42:59.478Z,1.98
2022-09-06T15:45:27.143Z,1.80
2022-09-06T15:47:55.341Z,1.95
2022-09-06T15:50:47.664Z,2.25
2022-09-06T15:53:09.933Z,2.10
2022-09-06T15:55:55.590Z,2.38
2022-09-06T15:58:23.584Z,2.10
2022-09-06T16:01:19.908Z,2.50
2022-09-06T16:03:50.878Z,2.00
2022-09-06T16:06:27.242Z,2.10
2022-09-06T16:08:59.387Z,2.03
2022-09-06T16:11:27.049Z,2.28
2022-09-06T16:13:54.884Z,1.75
2022-09-06T16:16:23.004Z,1.70
2022-09-06T16:18:52.002Z,1.80
2022-09-06T16:21:24.483Z,2.05
2022-09-06T16:23:55.735Z,2.22
2022-09-06T16:26:23.412Z,1.80
2022-09-06T16:28:51.407Z,2.47
2022-09-06T16:31:18.828Z,2.03
2022-09-06T16:33:46.640Z,1.80
2022-09-06T16:36:14.305Z,1.75
2022-09-06T16:38:41.987Z,1.67
2022-09-06T16:41:29.200Z,1.70
2022-09-06T16:43:56.474Z,1.70
2022-09-06T16:46:24.610Z,2.05
2022-09-06T16:48:56.707Z,1.80
2022-09-06T16:51:24.771Z,2.22
2022-09-06T16:53:52.270Z,1.88
2022-09-06T16:56:20.450Z,2.00
2022-09-06T16:58:54.422Z,1.77
2022-09-06T17:01:21.625Z,1.75
2022-09-06T17:03:49.244Z,1.40
2022-09-06T17:06:16.317Z,1.52
2022-09-06T17:08:43.579Z,1.88
2022-09-06T17:11:16.985Z,1.27
2022-09-06T17:13:45.492Z,1.60
2022-09-06T17:16:31.432Z,1.75
2022-09-06T17:18:59.376Z,1.60
2022-09-06T17:21:26.493Z,1.23
2022-09-06T17:23:53.997Z,1.75
2022-09-06T17:26:23.174Z,2.08
2022-09-06T17:28:50.452Z,2.20
2022-09-06T17:31:22.274Z,2.10
2022-09-06T17:33:52.570Z,1.90
2022-09-06T17:36:22.103Z,2.08
2022-09-06T17:38:53.267Z,2.05
2022-09-06T17:41:22.741Z,2.50
2022-09-06T17:43:50.444Z,2.17
2022-09-06T17:46:17.482Z,2.40
2022-09-06T17:48:44.485Z,2.33
2022-09-06T17:51:12.049Z,2.67
2022-09-06T17:53:39.272Z,3.03
2022-09-06T17:56:08.194Z,2.47
2022-09-06T17:58:36.406Z,2.92
2022-09-06T18:01:04.877Z,2.88
2022-09-06T18:03:31.848Z,2.08
2022-09-06T18:06:05.345Z,2.00
2022-09-06T18:08:33.304Z,1.75
2022-09-06T18:11:09.543Z,1.27
2022-09-06T18:13:39.974Z,1.42
2022-09-06T18:16:06.947Z,2.05
2022-09-06T18:18:34.632Z,1.60
2022-09-06T18:21:02.577Z,1.80
2022-09-06T18:23:30.062Z,1.50
2022-09-06T18:25:57.287Z,1.50
2022-09-06T18:28:24.209Z,1.35
2022-09-06T18:30:51.586Z,1.45
2022-09-06T18:33:18.670Z,1.85
2022-09-06T18:35:48.934Z,1.75
2022-09-06T18:38:16.013Z,1.77
2022-09-06T18:40:55.659Z,2.00
2022-09-06T18:43:24.832Z,2.00
2022-09-06T18:45:52.138Z,1.80
2022-09-06T18:48:19.313Z,2.00
2022-09-06T18:50:46.423Z,1.88
2022-09-06T18:53:14.950Z,1.98
2022-09-06T18:55:43.334Z,2.05
2022-09-06T18:58:11.449Z,1.67
2022-09-06T19:00:38.428Z,1.80
2022-09-06T19:03:05.551Z,2.03
2022-09-06T19:05:34.460Z,2.00
2022-09-06T19:08:01.692Z,2.00
2022-09-06T19:10:28.910Z,1.92
2022-09-06T19:12:57.309Z,1.60
2022-09-06T19:15:24.555Z,1.70
2022-09-06T19:17:52.567Z,1.90
2022-09-06T19:20:23.005Z,1.45
2022-09-06T19:22:50.832Z,1.60
2022-09-06T19:25:18.414Z,1.50
2022-09-06T19:27:48.677Z,1.52
2022-09-06T19:30:15.951Z,1.50
2022-09-06T19:32:45.629Z,1.40
2022-09-06T19:35:12.946Z,2.10
2022-09-06T19:37:40.346Z,1.83
2022-09-06T19:40:07.923Z,2.20
2022-09-06T19:42:34.869Z,1.60
2022-09-06T19:45:01.872Z,1.38
2022-09-06T19:47:28.751Z,1.55
2022-09-06T19:49:55.589Z,1.80
2022-09-06T19:52:23.074Z,1.60
2022-09-06T19:54:50.028Z,1.58
2022-09-06T19:57:16.878Z,1.80
2022-09-06T19:59:43.787Z,1.52
2022-09-06T20:02:10.987Z,1.33
2022-09-06T20:04:37.998Z,1.60
2022-09-06T20:07:05.272Z,1.52
2022-09-06T20:09:32.229Z,1.05
2022-09-06T20:11:59.495Z,1.20
2022-09-06T20:14:26.843Z,1.20
2022-09-06T20:16:54.030Z,1.40
2022-09-06T20:19:21.042Z,1.65
2022-09-06T20:21:48.000Z,1.20
2022-09-06T20:24:14.934Z,1.38
2022-09-06T20:26:42.073Z,1.85
2022-09-06T20:29:09.254Z,1.95
2022-09-06T20:31:36.948Z,1.60
2022-09-06T20:34:05.228Z,1.52
2022-09-06T20:36:32.390Z,1.50
2022-09-06T20:38:59.672Z,1.20
2022-09-06T20:41:27.822Z,1.10
2022-09-06T20:43:58.550Z,1.10
2022-09-06T20:46:26.658Z,1.30
2022-09-06T20:48:53.550Z,1.10
2022-09-06T20:51:21.832Z,1.15
2022-09-06T20:53:56.398Z,1.45
2022-09-06T20:56:33.950Z,0.98
2022-09-06T21:01:30.073Z,1.70
2022-09-06T21:03:58.590Z,1.15
2022-09-06T21:06:26.538Z,1.13
2022-09-06T21:08:56.953Z,1.10
2022-09-06T21:11:24.050Z,1.50
2022-09-06T21:13:52.079Z,1.60
2022-09-06T21:16:24.331Z,1.00
2022-09-06T21:19:01.788Z,1.73
2022-09-06T21:21:29.659Z,0.90
2022-09-06T21:23:57.032Z,1.00
2022-09-06T21:26:23.927Z,1.00
2022-09-06T21:28:50.797Z,1.63
2022-09-06T21:31:24.798Z,1.15
2022-09-06T21:33:53.173Z,1.08
2022-09-06T21:36:21.815Z,0.85
2022-09-06T21:38:51.637Z,0.80
2022-09-06T21:41:19.141Z,0.90
2022-09-06T21:43:46.347Z,0.90
2022-09-06T21:46:14.727Z,0.63
2022-09-06T21:48:43.014Z,0.80
2022-09-06T21:51:10.919Z,1.02
2022-09-06T21:53:38.107Z,0.85
2022-09-06T21:56:05.656Z,1.08
2022-09-06T21:58:32.896Z,1.15
2022-09-06T22:01:00.699Z,1.42
2022-09-06T22:03:28.879Z,0.95
2022-09-06T22:05:55.880Z,0.93
2022-09-06T22:08:23.271Z,0.90
2022-09-06T22:10:50.731Z,0.95
2022-09-06T22:13:18.293Z,1.20
2022-09-06T22:15:46.086Z,0.90
2022-09-06T22:18:13.640Z,1.20
2022-09-06T22:20:41.051Z,1.00
2022-09-06T22:23:08.717Z,1.52
2022-09-06T22:25:35.876Z,1.00
2022-09-06T22:28:02.886Z,1.60
2022-09-06T22:30:31.113Z,1.17
2022-09-06T22:32:58.331Z,1.08
2022-09-06T22:35:25.450Z,1.10
2022-09-06T22:37:52.599Z,1.15
2022-09-06T22:40:19.471Z,1.38
2022-09-06T22:42:46.453Z,0.93
2022-09-06T22:45:13.691Z,1.00
2022-09-06T22:47:40.904Z,1.30
2022-09-06T22:50:08.556Z,1.20
2022-09-06T22:52:35.594Z,1.10
2022-09-06T22:55:02.745Z,0.80
2022-09-06T22:57:29.695Z,0.90
2022-09-06T22:59:57.172Z,0.90
2022-09-06T23:02:27.099Z,0.95
2022-09-06T23:04:54.747Z,1.00
2022-09-06T23:07:22.022Z,1.00
2022-09-06T23:09:49.217Z,1.10
2022-09-06T23:12:16.161Z,0.98
2022-09-06T23:14:43.384Z,0.90
2022-09-06T23:17:10.630Z,1.23
2022-09-06T23:19:37.837Z,1.00
2022-09-06T23:22:05.451Z,0.73
2022-09-06T23:24:32.362Z,1.00
2022-09-06T23:26:59.396Z,0.90
2022-09-06T23:29:26.497Z,0.90
2022-09-06T23:31:53.648Z,0.95
2022-09-06T23:34:20.582Z,0.90
2022-09-06T23:36:48.270Z,1.02
2022-09-06T23:39:15.423Z,1.00
2022-09-06T23:41:42.546Z,1.13
2022-09-06T23:44:09.551Z,1.02
2022-09-06T23:46:36.671Z,1.40
2022-09-06T23:49:03.867Z,1.13
2022-09-06T23:51:31.176Z,1.30
2022-09-06T23:53:58.771Z,1.63
2022-09-06T23:56:25.651Z,1.40
2022-09-06T23:58:52.657Z,1.60
